Alexander Maersk — OZRC2 — position and weather

sailwx.info

Track history (hours):
 
Tides and Currents Weather Stations Pressure Air Temp Water Temp Dewpoint Dewpoint Depression Visibility Wind Speed Wind Dir Waves Ship Positions

Alexander Maersk

Last reported at 2017-Nov-29 01:03 UTC. Time now 2017-Dec-13 03:44 UTC.
Position N 35°39' E 014°37'.
Warning: this ship's position is 14 days out of date.

Length 155 m; draft 9.2 m.

Type: Cargo ship. MMSI: 219470000.

Date/timePositionNaut miles runAvg speedWind from/ knotsBaromVisibWave heightAir tempDewpointWater temp
2017-Nov-29 01:03N 35°39' E 014°37'1 8.7
2017-Nov-29 00:59N 35°39' E 014°36'4 8.0
2017-Nov-29 00:29N 35°43' E 014°35'5 8.1
2017-Nov-28 23:56N 35°47' E 014°34'2 0.1
2017-Nov-27 14:02N 35°49' E 014°33'0 4.0
2017-Nov-27 13:57N 35°49' E 014°33'2 4.9
2017-Nov-27 13:30N 35°48' E 014°35'2 3.4
2017-Nov-27 12:59N 35°47' E 014°37'2 3.0
2017-Nov-27 12:28N 35°48' E 014°39'3 7.4
2017-Nov-27 12:00N 35°50' E 014°42'2 3.0
2017-Nov-27 11:28N 35°51' E 014°43'0 0.0
2017-Nov-27 08:10N 35°51' E 014°44'0 0.1
2017-Nov-27 07:55N 35°51' E 014°44'0 0.1
2017-Nov-27 07:28N 35°51' E 014°44'0 0.0
2017-Nov-27 06:58N 35°51' E 014°44'0 0.0
2017-Nov-27 06:28N 35°51' E 014°44'0 0.1
2017-Nov-27 05:58N 35°51' E 014°44'0 0.1
2017-Nov-27 05:28N 35°51' E 014°44'0 0.0
2017-Nov-27 04:55N 35°51' E 014°44'0 0.0
2017-Nov-27 04:28N 35°51' E 014°44'0 0.0
2017-Nov-27 03:58N 35°51' E 014°44'0 0.0
2017-Nov-27 03:22N 35°51' E 014°44'0 0.1
2017-Nov-27 02:55N 35°51' E 014°44'0 0.1
2017-Nov-27 02:28N 35°51' E 014°44'0 0.1
2017-Nov-27 01:58N 35°51' E 014°44'0 0.0
2017-Nov-27 01:25N 35°51' E 014°44'0 0.0
2017-Nov-27 00:58N 35°51' E 014°44'0 0.0
2017-Nov-27 00:28N 35°51' E 014°44'0 0.0
2017-Nov-26 23:55N 35°51' E 014°44'0 0.1
2017-Nov-26 23:28N 35°51' E 014°44'0 0.0
2017-Nov-26 22:58N 35°51' E 014°44'0 0.0
2017-Nov-26 22:25N 35°51' E 014°44'0 0.0
2017-Nov-26 21:49N 35°51' E 014°44'0 0.0
2017-Nov-26 21:28N 35°51' E 014°44'0 0.0
2017-Nov-26 20:55N 35°51' E 014°44'0 0.0
2017-Nov-26 20:28N 35°51' E 014°44'0 0.0
2017-Nov-26 19:55N 35°51' E 014°44'0 0.0
2017-Nov-26 19:25N 35°51' E 014°44'0 0.1
2017-Nov-26 18:55N 35°51' E 014°44'0 0.0
2017-Nov-26 18:28N 35°51' E 014°44'0 0.0
2017-Nov-26 17:58N 35°51' E 014°44'0 0.0
2017-Nov-26 17:28N 35°51' E 014°44'0 0.0
2017-Nov-26 16:58N 35°51' E 014°44'0 0.0
2017-Nov-26 16:28N 35°51' E 014°44'0 0.0
2017-Nov-26 15:58N 35°51' E 014°44'0 0.0
2017-Nov-26 15:28N 35°51' E 014°44'0 0.0
2017-Nov-26 14:58N 35°51' E 014°44'0 0.1
2017-Nov-26 14:28N 35°51' E 014°44'0 0.0
2017-Nov-26 13:58N 35°51' E 014°44'0 0.0
2017-Nov-26 13:28N 35°51' E 014°44'0 0.1
2017-Nov-26 12:58N 35°51' E 014°44'0 0.1
2017-Nov-26 12:28N 35°51' E 014°44'0 0.1
2017-Nov-26 11:58N 35°51' E 014°44'0 0.1
2017-Nov-26 11:25N 35°51' E 014°44'0 0.1
2017-Nov-26 10:58N 35°51' E 014°44'0 0.1
2017-Nov-26 10:28N 35°51' E 014°44'0 0.1
2017-Nov-26 09:58N 35°51' E 014°44'0 0.1
2017-Nov-26 09:28N 35°51' E 014°44'0 0.1
2017-Nov-26 08:58N 35°51' E 014°44'0 0.1
2017-Nov-26 08:22N 35°51' E 014°44'0 0.0
2017-Nov-26 07:58N 35°51' E 014°44'0 0.1
2017-Nov-26 07:28N 35°51' E 014°44'0 0.0
2017-Nov-26 06:58N 35°51' E 014°44'0 0.1
2017-Nov-26 06:28N 35°51' E 014°44'0 0.0
2017-Nov-26 05:58N 35°51' E 014°44'0 0.0
2017-Nov-26 05:28N 35°51' E 014°44'0 0.0
2017-Nov-26 04:58N 35°51' E 014°44'0 0.0
2017-Nov-26 04:25N 35°51' E 014°44'0 0.0
2017-Nov-26 03:58N 35°51' E 014°44'0 0.1
2017-Nov-26 03:25N 35°51' E 014°44'0 0.0
2017-Nov-26 02:55N 35°51' E 014°44'0 0.0
2017-Nov-26 02:25N 35°51' E 014°44'0 0.0
2017-Nov-26 01:58N 35°51' E 014°44'0 0.0
2017-Nov-26 01:28N 35°51' E 014°44'0 0.0
2017-Nov-26 00:58N 35°51' E 014°44'0 0.0
2017-Nov-26 00:28N 35°51' E 014°44'0 0.0
2017-Nov-25 23:58N 35°51' E 014°44'0 0.0
2017-Nov-25 23:28N 35°51' E 014°44'0 0.0
2017-Nov-25 22:58N 35°51' E 014°44'0 0.1
2017-Nov-25 22:28N 35°51' E 014°44'0 0.0
2017-Nov-25 21:58N 35°51' E 014°44'0 0.0
2017-Nov-25 21:28N 35°51' E 014°44'0 0.0
2017-Nov-25 20:58N 35°51' E 014°44'0 0.2
2017-Nov-25 20:30N 35°51' E 014°44'17 7.1
2017-Nov-25 18:09N 35°42' E 014°26'1 8.2
2017-Nov-25 18:00N 35°41' E 014°25'4 8.3
2017-Nov-25 17:30N 35°40' E 014°20'4 8.2
2017-Nov-25 17:00N 35°38' E 014°16'4 8.3
2017-Nov-25 16:29N 35°36' E 014°11'  
Track history (hours):
 
Tides and Currents Weather Stations Pressure Air Temp Water Temp Dewpoint Dewpoint Depression Visibility Wind Speed Wind Dir Waves Ship Positions

Alexander Maersk

Last reported at 2017-Nov-29 01:03 UTC. Time now 2017-Dec-13 03:44 UTC.
Position N 35°39' E 014°37'.
Warning: this ship's position is 14 days out of date.

Length 155 m; draft 9.2 m.

Type: Cargo ship. MMSI: 219470000.

Date/timePositionNaut miles runAvg speedWind from/ knotsBaromVisibWave heightAir tempDewpointWater temp
2017-Nov-29 01:03N 35°39' E 014°37'1 8.7
2017-Nov-29 00:59N 35°39' E 014°36'4 8.0
2017-Nov-29 00:29N 35°43' E 014°35'5 8.1
2017-Nov-28 23:56N 35°47' E 014°34'2 0.1
2017-Nov-27 14:02N 35°49' E 014°33'0 4.0
2017-Nov-27 13:57N 35°49' E 014°33'2 4.9
2017-Nov-27 13:30N 35°48' E 014°35'2 3.4
2017-Nov-27 12:59N 35°47' E 014°37'2 3.0
2017-Nov-27 12:28N 35°48' E 014°39'3 7.4
2017-Nov-27 12:00N 35°50' E 014°42'2 3.0
2017-Nov-27 11:28N 35°51' E 014°43'0 0.0
2017-Nov-27 08:10N 35°51' E 014°44'0 0.1
2017-Nov-27 07:55N 35°51' E 014°44'0 0.1
2017-Nov-27 07:28N 35°51' E 014°44'0 0.0
2017-Nov-27 06:58N 35°51' E 014°44'0 0.0
2017-Nov-27 06:28N 35°51' E 014°44'0 0.1
2017-Nov-27 05:58N 35°51' E 014°44'0 0.1
2017-Nov-27 05:28N 35°51' E 014°44'0 0.0
2017-Nov-27 04:55N 35°51' E 014°44'0 0.0
2017-Nov-27 04:28N 35°51' E 014°44'0 0.0
2017-Nov-27 03:58N 35°51' E 014°44'0 0.0
2017-Nov-27 03:22N 35°51' E 014°44'0 0.1
2017-Nov-27 02:55N 35°51' E 014°44'0 0.1
2017-Nov-27 02:28N 35°51' E 014°44'0 0.1
2017-Nov-27 01:58N 35°51' E 014°44'0 0.0
2017-Nov-27 01:25N 35°51' E 014°44'0 0.0
2017-Nov-27 00:58N 35°51' E 014°44'0 0.0
2017-Nov-27 00:28N 35°51' E 014°44'0 0.0
2017-Nov-26 23:55N 35°51' E 014°44'0 0.1
2017-Nov-26 23:28N 35°51' E 014°44'0 0.0
2017-Nov-26 22:58N 35°51' E 014°44'0 0.0
2017-Nov-26 22:25N 35°51' E 014°44'0 0.0
2017-Nov-26 21:49N 35°51' E 014°44'0 0.0
2017-Nov-26 21:28N 35°51' E 014°44'0 0.0
2017-Nov-26 20:55N 35°51' E 014°44'0 0.0
2017-Nov-26 20:28N 35°51' E 014°44'0 0.0
2017-Nov-26 19:55N 35°51' E 014°44'0 0.0
2017-Nov-26 19:25N 35°51' E 014°44'0 0.1
2017-Nov-26 18:55N 35°51' E 014°44'0 0.0
2017-Nov-26 18:28N 35°51' E 014°44'0 0.0
2017-Nov-26 17:58N 35°51' E 014°44'0 0.0
2017-Nov-26 17:28N 35°51' E 014°44'0 0.0
2017-Nov-26 16:58N 35°51' E 014°44'0 0.0
2017-Nov-26 16:28N 35°51' E 014°44'0 0.0
2017-Nov-26 15:58N 35°51' E 014°44'0 0.0
2017-Nov-26 15:28N 35°51' E 014°44'0 0.0
2017-Nov-26 14:58N 35°51' E 014°44'0 0.1
2017-Nov-26 14:28N 35°51' E 014°44'0 0.0
2017-Nov-26 13:58N 35°51' E 014°44'0 0.0
2017-Nov-26 13:28N 35°51' E 014°44'0 0.1
2017-Nov-26 12:58N 35°51' E 014°44'0 0.1
2017-Nov-26 12:28N 35°51' E 014°44'0 0.1
2017-Nov-26 11:58N 35°51' E 014°44'0 0.1
2017-Nov-26 11:25N 35°51' E 014°44'0 0.1
2017-Nov-26 10:58N 35°51' E 014°44'0 0.1
2017-Nov-26 10:28N 35°51' E 014°44'0 0.1
2017-Nov-26 09:58N 35°51' E 014°44'0 0.1
2017-Nov-26 09:28N 35°51' E 014°44'0 0.1
2017-Nov-26 08:58N 35°51' E 014°44'0 0.1
2017-Nov-26 08:22N 35°51' E 014°44'0 0.0
2017-Nov-26 07:58N 35°51' E 014°44'0 0.1
2017-Nov-26 07:28N 35°51' E 014°44'0 0.0
2017-Nov-26 06:58N 35°51' E 014°44'0 0.1
2017-Nov-26 06:28N 35°51' E 014°44'0 0.0
2017-Nov-26 05:58N 35°51' E 014°44'0 0.0
2017-Nov-26 05:28N 35°51' E 014°44'0 0.0
2017-Nov-26 04:58N 35°51' E 014°44'0 0.0
2017-Nov-26 04:25N 35°51' E 014°44'0 0.0
2017-Nov-26 03:58N 35°51' E 014°44'0 0.1
2017-Nov-26 03:25N 35°51' E 014°44'0 0.0
2017-Nov-26 02:55N 35°51' E 014°44'0 0.0
2017-Nov-26 02:25N 35°51' E 014°44'0 0.0
2017-Nov-26 01:58N 35°51' E 014°44'0 0.0
2017-Nov-26 01:28N 35°51' E 014°44'0 0.0
2017-Nov-26 00:58N 35°51' E 014°44'0 0.0
2017-Nov-26 00:28N 35°51' E 014°44'0 0.0
2017-Nov-25 23:58N 35°51' E 014°44'0 0.0
2017-Nov-25 23:28N 35°51' E 014°44'0 0.0
2017-Nov-25 22:58N 35°51' E 014°44'0 0.1
2017-Nov-25 22:28N 35°51' E 014°44'0 0.0
2017-Nov-25 21:58N 35°51' E 014°44'0 0.0
2017-Nov-25 21:28N 35°51' E 014°44'0 0.0
2017-Nov-25 20:58N 35°51' E 014°44'0 0.2
2017-Nov-25 20:30N 35°51' E 014°44'17 7.1
2017-Nov-25 18:09N 35°42' E 014°26'1 8.2
2017-Nov-25 18:00N 35°41' E 014°25'4 8.3
2017-Nov-25 17:30N 35°40' E 014°20'4 8.2
2017-Nov-25 17:00N 35°38' E 014°16'4 8.3
2017-Nov-25 16:29N 35°36' E 014°11'  

Dump ship's entire track history